Time;durP1;ratioP1;P1;durP2;ratioP2;P2;SDS_P1;SDS_P2;PMS_P1;PMS_P2;Temp;Humidity;BMP_temperature;BMP_pressure;BME280_temperature;BME280_humidity;BME280_pressure;Samples;Min_cycle;Max_cycle;Signal;HPM_P1;HPM_P2
2022/07/05 00:01:56;;;;;;;;;;;28.70;99.90;;;;;;5104168;28;19947;-71
2022/07/05 00:04:21;;;;;;;;;;;28.60;99.90;;;;;;5107633;28;19937;-72
2022/07/05 00:09:31;;;;;;;;;;;28.60;99.90;;;;;;5106403;28;19915;-72
2022/07/05 00:11:57;;;;;;;;;;;28.50;99.90;;;;;;5101171;28;19912;-73
2022/07/05 00:14:23;;;;;;;;;;;28.50;99.90;;;;;;5111595;28;19907;-72
2022/07/05 00:16:49;;;;;;;;;;;28.40;99.90;;;;;;5108473;28;19915;-73
2022/07/05 00:19:15;;;;;;;;;;;28.40;99.90;;;;;;5109838;28;20470;-73
2022/07/05 00:21:40;;;;;;;;;;;28.40;99.90;;;;;;5112251;28;19908;-72
2022/07/05 00:24:06;;;;;;;;;;;28.50;99.90;;;;;;5114831;28;19947;-73
2022/07/05 00:26:31;;;;;;;;;;;28.40;99.90;;;;;;5098476;28;20370;-73
2022/07/05 00:28:57;;;;;;;;;;;28.30;99.90;;;;;;5135425;27;20012;-72
2022/07/05 00:31:23;;;;;;;;;;;28.30;99.90;;;;;;5124006;28;19919;-73
2022/07/05 00:33:48;;;;;;;;;;;28.20;99.90;;;;;;5123035;28;20348;-72
2022/07/05 00:36:14;;;;;;;;;;;28.00;99.90;;;;;;5112133;28;19916;-71
2022/07/05 00:38:39;;;;;;;;;;;28.10;99.90;;;;;;5117579;27;19949;-72
2022/07/05 00:41:05;;;;;;;;;;;28.10;99.90;;;;;;5113316;28;19993;-72
2022/07/05 00:43:31;;;;;;;;;;;28.10;99.90;;;;;;5123466;28;19915;-72
2022/07/05 00:45:56;;;;;;;;;;;28.00;99.90;;;;;;5123476;28;19938;-70
2022/07/05 00:48:22;;;;;;;;;;;28.00;99.90;;;;;;5124001;28;20284;-72
2022/07/05 00:50:49;;;;;;;;;;;28.10;99.90;;;;;;5122612;28;19908;-72
2022/07/05 00:53:15;;;;;;;;;;;28.20;99.90;;;;;;5117372;28;20388;-71
2022/07/05 00:55:42;;;;;;;;;;;28.20;99.90;;;;;;5102184;28;19912;-71
2022/07/05 00:58:08;;;;;;;;;;;28.10;99.90;;;;;;5109695;28;19915;-73
2022/07/05 01:00:33;;;;;;;;;;;28.20;99.90;;;;;;5111414;28;19917;-72
2022/07/05 01:02:59;;;;;;;;;;;28.00;99.90;;;;;;5104645;28;19907;-73
2022/07/05 01:05:25;;;;;;;;;;;27.90;99.90;;;;;;5111980;28;19911;-73
2022/07/05 01:07:50;;;;;;;;;;;27.80;99.90;;;;;;5109407;28;20318;-72
2022/07/05 01:10:17;;;;;;;;;;;27.90;99.90;;;;;;5108661;28;20053;-72
2022/07/05 01:12:42;;;;;;;;;;;28.10;99.90;;;;;;5102159;28;19947;-71
2022/07/05 01:15:08;;;;;;;;;;;28.20;99.90;;;;;;5096455;28;19946;-70
2022/07/05 01:17:36;;;;;;;;;;;28.20;99.90;;;;;;5106837;28;19912;-72
2022/07/05 01:20:03;;;;;;;;;;;28.30;99.90;;;;;;5110760;28;19987;-72
2022/07/05 01:22:32;;;;;;;;;;;28.20;99.90;;;;;;5112070;28;19908;-73
2022/07/05 01:24:58;;;;;;;;;;;28.20;99.90;;;;;;5104942;28;19927;-73
2022/07/05 01:27:23;;;;;;;;;;;28.10;99.90;;;;;;5105265;28;19912;-73
2022/07/05 01:29:49;;;;;;;;;;;28.10;99.90;;;;;;5108653;28;19911;-73
2022/07/05 01:32:14;;;;;;;;;;;28.10;99.90;;;;;;5110043;28;19908;-73
2022/07/05 01:34:41;;;;;;;;;;;28.00;99.90;;;;;;5109445;28;20274;-73
2022/07/05 01:37:06;;;;;;;;;;;28.00;99.90;;;;;;5108464;28;19926;-72
2022/07/05 01:39:32;;;;;;;;;;;27.90;99.90;;;;;;5102864;28;19908;-74
2022/07/05 01:41:58;;;;;;;;;;;27.80;99.90;;;;;;5108366;28;20426;-73
2022/07/05 01:44:24;;;;;;;;;;;27.80;99.90;;;;;;5106212;27;19990;-72
2022/07/05 01:46:51;;;;;;;;;;;27.60;99.90;;;;;;5106350;28;20364;-71
2022/07/05 01:49:17;;;;;;;;;;;27.50;99.90;;;;;;5105555;28;19908;-73
2022/07/05 01:51:50;;;;;;;;;;;27.50;99.90;;;;;;5105565;28;19950;-72
2022/07/05 01:54:18;;;;;;;;;;;27.50;99.90;;;;;;5104054;28;20411;-72
2022/07/05 01:56:43;;;;;;;;;;;27.30;99.90;;;;;;5104027;28;19916;-72
2022/07/05 01:59:09;;;;;;;;;;;27.20;99.90;;;;;;5101868;28;19914;-72
2022/07/05 02:01:36;;;;;;;;;;;27.20;99.90;;;;;;5110845;28;19925;-73
2022/07/05 02:04:03;;;;;;;;;;;27.20;99.90;;;;;;5101100;28;19918;-70
2022/07/05 02:06:30;;;;;;;;;;;27.20;99.90;;;;;;5105799;28;19953;-73
2022/07/05 02:08:56;;;;;;;;;;;27.30;99.90;;;;;;5107495;28;19904;-70
2022/07/05 02:11:21;;;;;;;;;;;27.20;99.90;;;;;;5110701;28;20304;-72
2022/07/05 02:13:47;;;;;;;;;;;27.10;99.90;;;;;;5113332;28;19912;-72
2022/07/05 02:16:12;;;;;;;;;;;27.10;99.90;;;;;;5122984;28;20011;-73
2022/07/05 02:18:38;;;;;;;;;;;27.00;99.90;;;;;;5125459;28;19939;-73
2022/07/05 02:21:03;;;;;;;;;;;27.00;99.90;;;;;;5125798;28;19960;-73
2022/07/05 02:23:29;;;;;;;;;;;27.10;99.90;;;;;;5126728;28;19915;-71
2022/07/05 02:25:55;;;;;;;;;;;27.10;99.90;;;;;;5119113;28;19914;-72
2022/07/05 02:28:20;;;;;;;;;;;27.20;99.90;;;;;;5117881;28;19961;-72
2022/07/05 02:30:46;;;;;;;;;;;27.20;99.90;;;;;;5110438;28;20468;-73
2022/07/05 02:33:12;;;;;;;;;;;27.30;99.90;;;;;;5110066;28;19914;-72
2022/07/05 02:35:37;;;;;;;;;;;27.30;99.90;;;;;;5103524;28;19911;-73
2022/07/05 02:38:03;;;;;;;;;;;27.40;99.90;;;;;;5108639;28;20357;-74
2022/07/05 02:40:28;;;;;;;;;;;27.40;99.90;;;;;;5111526;28;19994;-73
2022/07/05 02:42:54;;;;;;;;;;;27.30;99.90;;;;;;5108902;28;19903;-74
2022/07/05 02:45:19;;;;;;;;;;;27.40;99.90;;;;;;5110066;28;19904;-72
2022/07/05 02:47:45;;;;;;;;;;;27.30;99.90;;;;;;5106546;28;19998;-72
2022/07/05 02:50:11;;;;;;;;;;;27.30;99.90;;;;;;5105749;28;19908;-71
2022/07/05 02:52:36;;;;;;;;;;;27.30;99.90;;;;;;5109852;28;19956;-71
2022/07/05 02:55:03;;;;;;;;;;;27.20;99.90;;;;;;5106504;28;19907;-73
2022/07/05 02:57:28;;;;;;;;;;;27.20;99.90;;;;;;5108967;28;19911;-72
2022/07/05 02:59:54;;;;;;;;;;;27.10;99.90;;;;;;5106650;28;20369;-72
2022/07/05 03:02:20;;;;;;;;;;;27.10;99.90;;;;;;5106124;28;19907;-73
2022/07/05 03:04:46;;;;;;;;;;;27.10;99.90;;;;;;5106392;28;20362;-74
2022/07/05 03:07:11;;;;;;;;;;;27.10;99.90;;;;;;5119508;28;19912;-71
2022/07/05 03:09:37;;;;;;;;;;;27.10;99.90;;;;;;5126358;28;19942;-72
2022/07/05 03:12:03;;;;;;;;;;;27.00;99.90;;;;;;5127958;28;19930;-72
2022/07/05 03:14:28;;;;;;;;;;;26.90;99.90;;;;;;5113768;28;19911;-72
2022/07/05 03:16:54;;;;;;;;;;;26.80;99.90;;;;;;5123202;28;19923;-71
2022/07/05 03:19:20;;;;;;;;;;;26.80;99.90;;;;;;5106407;28;19952;-73
2022/07/05 03:21:45;;;;;;;;;;;26.80;99.90;;;;;;5110883;28;19919;-73
2022/07/05 03:24:11;;;;;;;;;;;26.70;99.90;;;;;;5109355;28;19923;-72
2022/07/05 03:26:37;;;;;;;;;;;26.70;99.90;;;;;;5105998;28;20284;-72
2022/07/05 03:29:02;;;;;;;;;;;26.70;99.90;;;;;;5107047;28;19938;-72
2022/07/05 03:31:28;;;;;;;;;;;26.60;99.90;;;;;;5109959;28;19915;-73
2022/07/05 03:33:54;;;;;;;;;;;26.50;99.90;;;;;;5103341;28;19953;-71
2022/07/05 03:36:19;;;;;;;;;;;26.50;99.90;;;;;;5108851;28;19912;-72
2022/07/05 03:38:45;;;;;;;;;;;26.40;99.90;;;;;;5110308;28;19923;-74
2022/07/05 03:41:10;;;;;;;;;;;26.30;99.90;;;;;;5110626;28;19954;-72
2022/07/05 03:43:36;;;;;;;;;;;26.30;99.90;;;;;;5108682;28;19907;-75
2022/07/05 03:46:02;;;;;;;;;;;26.30;99.90;;;;;;5102407;28;19969;-71
2022/07/05 03:48:27;;;;;;;;;;;26.30;99.90;;;;;;5107548;28;20266;-73
2022/07/05 03:50:53;;;;;;;;;;;26.30;99.90;;;;;;5102067;28;19922;-71
2022/07/05 03:53:18;;;;;;;;;;;26.30;99.90;;;;;;5110309;28;19910;-71
2022/07/05 03:55:44;;;;;;;;;;;26.40;99.90;;;;;;5109562;28;19912;-70
2022/07/05 03:58:10;;;;;;;;;;;26.40;99.90;;;;;;5109610;28;19934;-67
2022/07/05 04:00:35;;;;;;;;;;;26.30;99.90;;;;;;5113902;28;19904;-67
2022/07/05 04:03:01;;;;;;;;;;;26.50;99.90;;;;;;5114153;27;19903;-66
2022/07/05 04:05:26;;;;;;;;;;;26.60;99.90;;;;;;5113351;28;19915;-67
2022/07/05 04:07:53;;;;;;;;;;;26.60;99.90;;;;;;5108856;28;19923;-67
2022/07/05 04:10:18;;;;;;;;;;;26.60;99.90;;;;;;5108092;28;19984;-67
2022/07/05 04:12:44;;;;;;;;;;;26.60;99.90;;;;;;5107782;28;19911;-67
2022/07/05 04:15:10;;;;;;;;;;;26.60;99.90;;;;;;5109582;28;19908;-68
2022/07/05 04:17:45;;;;;;;;;;;26.60;99.90;;;;;;5107025;28;19915;-67
2022/07/05 04:20:10;;;;;;;;;;;26.60;99.90;;;;;;5105633;28;19990;-66
2022/07/05 04:22:36;;;;;;;;;;;26.70;99.90;;;;;;5112636;28;20015;-67
2022/07/05 04:25:17;;;;;;;;;;;26.60;99.90;;;;;;5107663;28;19955;-68
2022/07/05 04:27:43;;;;;;;;;;;26.70;99.90;;;;;;5100555;28;19916;-68
2022/07/05 04:30:09;;;;;;;;;;;26.70;99.90;;;;;;5104735;28;19908;-67
2022/07/05 04:32:35;;;;;;;;;;;26.70;99.90;;;;;;5112972;28;20381;-67
2022/07/05 04:35:00;;;;;;;;;;;26.80;99.90;;;;;;5112826;28;20002;-67
2022/07/05 04:37:26;;;;;;;;;;;26.80;99.90;;;;;;5105622;28;19964;-68
2022/07/05 04:39:52;;;;;;;;;;;26.70;99.90;;;;;;5109487;28;19919;-67
2022/07/05 04:42:18;;;;;;;;;;;26.70;99.90;;;;;;5113571;28;20345;-68
2022/07/05 04:44:43;;;;;;;;;;;26.70;99.90;;;;;;5111144;28;19912;-68
2022/07/05 04:47:09;;;;;;;;;;;26.70;99.90;;;;;;5110259;28;19907;-68
2022/07/05 04:49:34;;;;;;;;;;;26.70;99.90;;;;;;5108454;28;19908;-68
2022/07/05 04:52:00;;;;;;;;;;;26.80;99.90;;;;;;5110529;28;19914;-67
2022/07/05 04:54:26;;;;;;;;;;;27.00;99.90;;;;;;5108885;28;19908;-66
2022/07/05 04:56:51;;;;;;;;;;;27.00;99.90;;;;;;5101035;28;19918;-67
2022/07/05 04:59:17;;;;;;;;;;;27.00;99.90;;;;;;5108050;28;19961;-67
2022/07/05 05:01:42;;;;;;;;;;;27.00;99.90;;;;;;5113126;28;20015;-62
2022/07/05 05:04:08;;;;;;;;;;;27.00;99.90;;;;;;5110215;28;19907;-64
2022/07/05 05:06:33;;;;;;;;;;;26.80;99.90;;;;;;5106845;28;19951;-64
2022/07/05 05:08:59;;;;;;;;;;;26.80;99.90;;;;;;5112727;27;19910;-63
2022/07/05 05:11:25;;;;;;;;;;;26.90;99.90;;;;;;5113036;28;20323;-65
2022/07/05 05:13:50;;;;;;;;;;;27.10;99.90;;;;;;5107304;28;19998;-62
2022/07/05 05:16:16;;;;;;;;;;;27.10;99.90;;;;;;5100007;28;19912;-66
2022/07/05 05:18:41;;;;;;;;;;;27.20;99.90;;;;;;5105551;28;19908;-66
2022/07/05 05:21:27;;;;;;;;;;;27.20;99.90;;;;;;5106489;28;20333;-66
2022/07/05 05:24:06;;;;;;;;;;;27.30;99.90;;;;;;5097031;28;20026;-65
2022/07/05 05:26:34;;;;;;;;;;;27.40;99.90;;;;;;5097329;28;19915;-66
2022/07/05 05:29:00;;;;;;;;;;;27.50;99.90;;;;;;5097917;28;19922;-66
2022/07/05 05:31:25;;;;;;;;;;;27.60;99.90;;;;;;5097588;28;19998;-66
2022/07/05 05:33:51;;;;;;;;;;;27.70;99.90;;;;;;5107499;28;19911;-65
2022/07/05 05:36:16;;;;;;;;;;;27.70;99.90;;;;;;5104342;27;19919;-66
2022/07/05 05:38:42;;;;;;;;;;;27.80;99.90;;;;;;5106714;28;20109;-66
2022/07/05 05:41:07;;;;;;;;;;;27.80;99.90;;;;;;5109406;28;20388;-66
2022/07/05 05:43:33;;;;;;;;;;;27.90;99.90;;;;;;5112261;28;19915;-65
2022/07/05 05:45:59;;;;;;;;;;;28.10;99.90;;;;;;5108261;28;19908;-66
2022/07/05 05:48:24;;;;;;;;;;;28.10;99.90;;;;;;5104144;28;19907;-65
2022/07/05 05:50:51;;;;;;;;;;;28.00;99.90;;;;;;5099504;28;19951;-65
2022/07/05 05:53:17;;;;;;;;;;;28.10;99.90;;;;;;5112073;28;20361;-65
2022/07/05 05:55:42;;;;;;;;;;;28.00;99.90;;;;;;5105673;28;19919;-64
2022/07/05 05:58:11;;;;;;;;;;;27.90;99.90;;;;;;5111986;28;19922;-66
2022/07/05 06:00:36;;;;;;;;;;;27.90;99.90;;;;;;5111861;28;19903;-66
2022/07/05 06:03:02;;;;;;;;;;;28.00;99.90;;;;;;5112556;28;19910;-64
2022/07/05 06:05:28;;;;;;;;;;;28.00;99.90;;;;;;5110678;28;20393;-64
2022/07/05 06:07:54;;;;;;;;;;;27.80;99.90;;;;;;5108030;28;20053;-65
2022/07/05 06:10:22;;;;;;;;;;;27.80;99.90;;;;;;5108097;28;20366;-64
2022/07/05 06:12:48;;;;;;;;;;;27.80;99.90;;;;;;5107197;28;19943;-64
2022/07/05 06:15:14;;;;;;;;;;;27.90;99.90;;;;;;5106105;28;19911;-63
2022/07/05 06:17:40;;;;;;;;;;;28.10;99.90;;;;;;5109372;28;19965;-64
2022/07/05 06:20:09;;;;;;;;;;;28.30;99.90;;;;;;5106269;28;19911;-67
2022/07/05 06:22:35;;;;;;;;;;;28.30;99.90;;;;;;5120323;27;19919;-66
2022/07/05 06:25:00;;;;;;;;;;;28.50;99.90;;;;;;5109409;28;19904;-68
2022/07/05 06:27:26;;;;;;;;;;;28.60;99.90;;;;;;5106812;28;19907;-67
2022/07/05 06:29:51;;;;;;;;;;;28.60;99.90;;;;;;5101475;28;19916;-68
2022/07/05 06:32:17;;;;;;;;;;;28.60;99.90;;;;;;5104959;28;20560;-68
2022/07/05 06:34:43;;;;;;;;;;;28.60;99.90;;;;;;5105781;28;19923;-65
2022/07/05 06:37:08;;;;;;;;;;;28.70;99.90;;;;;;5109529;28;19915;-66
2022/07/05 06:39:35;;;;;;;;;;;28.50;99.90;;;;;;5110830;28;19915;-64
2022/07/05 06:42:00;;;;;;;;;;;28.70;99.90;;;;;;5105794;28;19904;-69
2022/07/05 06:44:26;;;;;;;;;;;29.00;99.90;;;;;;5109953;28;20278;-65
2022/07/05 06:46:52;;;;;;;;;;;29.10;99.90;;;;;;5111183;28;19908;-65
2022/07/05 06:49:17;;;;;;;;;;;29.10;99.90;;;;;;5109454;28;19907;-65
2022/07/05 06:51:43;;;;;;;;;;;29.10;99.90;;;;;;5110207;28;19910;-65
2022/07/05 06:54:08;;;;;;;;;;;29.10;99.90;;;;;;5111507;28;20361;-65
2022/07/05 06:56:34;;;;;;;;;;;29.10;99.90;;;;;;5109479;28;19912;-65
2022/07/05 06:58:59;;;;;;;;;;;28.90;99.90;;;;;;5110837;28;19998;-66
2022/07/05 07:01:25;;;;;;;;;;;29.10;99.90;;;;;;5110822;28;19908;-65
2022/07/05 07:03:51;;;;;;;;;;;29.20;99.90;;;;;;5110859;28;19903;-65
2022/07/05 07:06:16;;;;;;;;;;;29.40;99.90;;;;;;5109656;28;20321;-68
2022/07/05 07:11:26;;;;;;;;;;;29.40;99.90;;;;;;5110837;28;19961;-65
2022/07/05 07:13:52;;;;;;;;;;;29.20;99.90;;;;;;5111559;28;19907;-67
2022/07/05 07:16:18;;;;;;;;;;;29.10;99.90;;;;;;5109812;28;19915;-67
2022/07/05 07:18:43;;;;;;;;;;;29.20;99.90;;;;;;5111225;28;20010;-67
2022/07/05 07:21:09;;;;;;;;;;;29.40;99.90;;;;;;5109554;28;19904;-64
2022/07/05 07:23:36;;;;;;;;;;;29.40;99.90;;;;;;5111061;28;20313;-63
2022/07/05 07:26:01;;;;;;;;;;;29.30;99.90;;;;;;5109894;28;20006;-63
2022/07/05 07:28:28;;;;;;;;;;;29.20;99.90;;;;;;5113384;28;20018;-60
2022/07/05 07:30:54;;;;;;;;;;;29.20;99.90;;;;;;5116641;28;20095;-60
2022/07/05 07:33:19;;;;;;;;;;;29.30;99.90;;;;;;5112852;28;19904;-60
2022/07/05 07:35:45;;;;;;;;;;;29.30;99.90;;;;;;5108855;28;19954;-60
2022/07/05 07:38:10;;;;;;;;;;;29.40;99.90;;;;;;5108877;28;20545;-62
2022/07/05 07:40:36;;;;;;;;;;;29.50;99.90;;;;;;5114557;28;19995;-62
2022/07/05 07:43:02;;;;;;;;;;;29.40;99.90;;;;;;5114754;28;19911;-70
2022/07/05 07:45:30;;;;;;;;;;;29.30;99.90;;;;;;5114831;28;19908;-69
2022/07/05 07:47:56;;;;;;;;;;;29.40;99.90;;;;;;5114370;28;19935;-70
2022/07/05 07:50:21;;;;;;;;;;;29.50;99.90;;;;;;5113011;28;19903;-69
2022/07/05 07:52:47;;;;;;;;;;;29.70;99.90;;;;;;5113258;28;20002;-69
2022/07/05 07:55:13;;;;;;;;;;;29.80;99.90;;;;;;5113207;28;19936;-61
2022/07/05 07:57:39;;;;;;;;;;;29.70;99.90;;;;;;5114327;28;19919;-62
2022/07/05 08:00:05;;;;;;;;;;;29.70;99.90;;;;;;5106631;28;19957;-62
2022/07/05 08:02:30;;;;;;;;;;;29.70;99.90;;;;;;5114408;27;20384;-62
2022/07/05 08:04:57;;;;;;;;;;;29.80;99.90;;;;;;5114812;28;19911;-61
2022/07/05 08:07:23;;;;;;;;;;;30.10;99.90;;;;;;5114339;28;19996;-63
2022/07/05 08:09:50;;;;;;;;;;;30.20;99.90;;;;;;5114077;28;19938;-60
2022/07/05 08:12:15;;;;;;;;;;;30.30;99.90;;;;;;5114086;28;19911;-62
2022/07/05 08:14:41;;;;;;;;;;;30.40;99.90;;;;;;5114479;28;19904;-61
2022/07/05 08:17:08;;;;;;;;;;;30.60;99.90;;;;;;5114465;27;20358;-62
2022/07/05 08:22:19;;;;;;;;;;;30.70;99.90;;;;;;5094131;28;20379;-62
2022/07/05 08:24:45;;;;;;;;;;;30.50;99.90;;;;;;5093993;28;19908;-61
2022/07/05 08:27:11;;;;;;;;;;;30.60;99.90;;;;;;5112019;28;19904;-60
2022/07/05 08:29:36;;;;;;;;;;;30.60;99.90;;;;;;5113413;27;19907;-61
2022/07/05 08:32:02;;;;;;;;;;;30.60;99.90;;;;;;5112847;28;19910;-62
2022/07/05 08:34:28;;;;;;;;;;;30.80;99.90;;;;;;5113933;28;19986;-62
2022/07/05 08:36:53;;;;;;;;;;;30.80;99.90;;;;;;5114075;28;19907;-61
2022/07/05 08:39:19;;;;;;;;;;;30.90;99.90;;;;;;5113915;28;19939;-62
2022/07/05 08:41:49;;;;;;;;;;;31.10;99.90;;;;;;5113206;28;19904;-62
2022/07/05 08:44:16;;;;;;;;;;;31.10;99.90;;;;;;5114156;28;19907;-61
2022/07/05 08:46:42;;;;;;;;;;;31.30;99.90;;;;;;5114421;28;19903;-61
2022/07/05 08:49:09;;;;;;;;;;;31.40;99.90;;;;;;5113781;28;19947;-63
2022/07/05 08:51:38;;;;;;;;;;;31.50;99.90;;;;;;5107689;28;20433;-65
2022/07/05 08:54:04;;;;;;;;;;;31.60;99.90;;;;;;5112128;28;20339;-66
2022/07/05 08:56:29;;;;;;;;;;;31.60;99.90;;;;;;5112353;28;20052;-65
2022/07/05 08:58:55;;;;;;;;;;;31.70;99.90;;;;;;5113624;28;20304;-65
2022/07/05 09:01:21;;;;;;;;;;;31.80;99.90;;;;;;5114710;28;19903;-64
2022/07/05 09:03:47;;;;;;;;;;;32.00;99.90;;;;;;5113164;28;19904;-65
2022/07/05 09:06:16;;;;;;;;;;;32.40;99.90;;;;;;5114175;28;19911;-63
2022/07/05 09:08:41;;;;;;;;;;;32.40;99.90;;;;;;5115571;28;19911;-60
2022/07/05 09:11:08;;;;;;;;;;;32.40;99.90;;;;;;5116180;28;19903;-62
2022/07/05 09:13:35;;;;;;;;;;;32.00;99.90;;;;;;5115403;28;19908;-64
2022/07/05 09:16:00;;;;;;;;;;;31.80;99.90;;;;;;5114280;28;20361;-61
2022/07/05 09:18:38;;;;;;;;;;;31.60;99.90;;;;;;5109028;28;19923;-61
2022/07/05 09:21:22;;;;;;;;;;;31.50;99.90;;;;;;5114912;28;19903;-62
2022/07/05 09:24:00;;;;;;;;;;;31.60;99.90;;;;;;5114617;28;19949;-60
2022/07/05 09:26:32;;;;;;;;;;;31.90;99.90;;;;;;5113445;28;19907;-66
2022/07/05 09:28:58;;;;;;;;;;;32.10;99.90;;;;;;5113809;28;19910;-69
2022/07/05 09:31:33;;;;;;;;;;;32.50;99.90;;;;;;5113379;28;20445;-68
2022/07/05 09:34:09;;;;;;;;;;;32.60;99.90;;;;;;5111504;28;19998;-69
2022/07/05 09:36:52;;;;;;;;;;;32.90;99.90;;;;;;5112511;28;19999;-69
2022/07/05 09:39:18;;;;;;;;;;;33.20;99.90;;;;;;5112227;27;19987;-69
2022/07/05 09:41:44;;;;;;;;;;;33.40;99.90;;;;;;5111163;28;19974;-68
2022/07/05 09:44:09;;;;;;;;;;;33.80;99.90;;;;;;5106241;28;19903;-68
2022/07/05 09:46:35;;;;;;;;;;;33.90;99.90;;;;;;5111236;28;20358;-69
2022/07/05 09:49:01;;;;;;;;;;;33.50;99.90;;;;;;5111959;28;19904;-68
2022/07/05 09:51:26;;;;;;;;;;;33.10;99.90;;;;;;5107751;28;19910;-70
2022/07/05 09:53:53;;;;;;;;;;;33.00;99.90;;;;;;5098733;28;19908;-68
2022/07/05 09:56:20;;;;;;;;;;;33.00;99.90;;;;;;5100740;28;20056;-71
2022/07/05 09:58:46;;;;;;;;;;;33.00;99.90;;;;;;5119824;27;19904;-70
2022/07/05 10:01:27;;;;;;;;;;;32.80;99.90;;;;;;5113968;28;19987;-70
2022/07/05 10:03:58;;;;;;;;;;;32.70;99.90;;;;;;5110981;28;19904;-70
2022/07/05 10:06:24;;;;;;;;;;;32.60;99.90;;;;;;5111556;28;19944;-69
2022/07/05 10:08:50;;;;;;;;;;;32.50;99.90;;;;;;5109161;28;19912;-69
2022/07/05 10:11:16;;;;;;;;;;;32.20;99.90;;;;;;5110350;28;19914;-69
2022/07/05 10:13:43;;;;;;;;;;;31.90;99.90;;;;;;5106479;28;19958;-70
2022/07/05 10:16:09;;;;;;;;;;;32.00;99.90;;;;;;5111875;28;19922;-69
2022/07/05 10:18:34;;;;;;;;;;;32.10;99.90;;;;;;5112105;27;19907;-70
2022/07/05 10:21:01;;;;;;;;;;;32.30;99.90;;;;;;5111803;28;20328;-69
2022/07/05 10:23:27;;;;;;;;;;;32.60;99.90;;;;;;5111920;28;19904;-71
2022/07/05 10:25:53;;;;;;;;;;;32.80;99.90;;;;;;5110560;28;19907;-70
2022/07/05 10:28:21;;;;;;;;;;;33.00;99.90;;;;;;5112131;28;19904;-68
2022/07/05 10:30:49;;;;;;;;;;;33.10;99.90;;;;;;5110371;28;19904;-69
2022/07/05 10:33:19;;;;;;;;;;;32.60;99.90;;;;;;5112289;28;19965;-69
2022/07/05 10:35:45;;;;;;;;;;;32.50;99.90;;;;;;5108326;28;19923;-69
2022/07/05 10:38:11;;;;;;;;;;;32.30;99.90;;;;;;5111948;28;19910;-68
2022/07/05 10:40:39;;;;;;;;;;;32.40;99.90;;;;;;5110561;28;19910;-68
2022/07/05 10:43:06;;;;;;;;;;;32.50;99.90;;;;;;5095400;28;19937;-68
2022/07/05 10:45:36;;;;;;;;;;;32.40;99.90;;;;;;5091403;28;19904;-67
2022/07/05 10:48:11;;;;;;;;;;;32.00;99.90;;;;;;5090968;28;19904;-68
2022/07/05 10:50:43;;;;;;;;;;;31.90;99.90;;;;;;5091520;28;20006;-67
2022/07/05 10:53:08;;;;;;;;;;;32.10;99.90;;;;;;5091898;28;20334;-67
2022/07/05 10:55:46;;;;;;;;;;;32.20;99.90;;;;;;5091291;28;20017;-66
2022/07/05 10:58:30;;;;;;;;;;;32.30;99.90;;;;;;5091732;28;19908;-67
2022/07/05 11:01:14;;;;;;;;;;;32.40;99.90;;;;;;5091709;28;20304;-68
2022/07/05 11:03:40;;;;;;;;;;;32.10;99.90;;;;;;5104748;28;19905;-70
2022/07/05 11:06:07;;;;;;;;;;;32.30;99.90;;;;;;5117041;28;19903;-68
2022/07/05 11:08:52;;;;;;;;;;;32.50;99.90;;;;;;5118571;27;19903;-68
2022/07/05 11:11:22;;;;;;;;;;;32.60;99.90;;;;;;5108105;28;19952;-68
2022/07/05 11:13:48;;;;;;;;;;;32.40;99.90;;;;;;5102440;28;19904;-68
2022/07/05 11:16:33;;;;;;;;;;;32.10;99.90;;;;;;5106396;28;19912;-68
2022/07/05 11:19:12;;;;;;;;;;;32.30;99.90;;;;;;5096442;28;19907;-69
2022/07/05 11:21:40;;;;;;;;;;;32.30;99.90;;;;;;5123434;28;19908;-66
2022/07/05 11:24:24;;;;;;;;;;;32.30;99.90;;;;;;5123493;28;19904;-68
2022/07/05 11:26:53;;;;;;;;;;;32.20;99.90;;;;;;5117200;27;19918;-67
2022/07/05 11:29:38;;;;;;;;;;;32.40;99.90;;;;;;5100528;28;19911;-68
2022/07/05 11:32:07;;;;;;;;;;;32.60;99.90;;;;;;5119271;28;20022;-68
2022/07/05 11:34:33;;;;;;;;;;;32.80;99.90;;;;;;5119035;27;19957;-67
2022/07/05 11:37:23;;;;;;;;;;;32.80;99.90;;;;;;5115385;28;19916;-67
2022/07/05 11:40:10;;;;;;;;;;;32.60;99.90;;;;;;5118613;27;20411;-68
2022/07/05 11:42:53;;;;;;;;;;;32.80;99.90;;;;;;5117757;28;20026;-68
2022/07/05 11:45:19;;;;;;;;;;;33.00;99.90;;;;;;5120590;27;19989;-68
2022/07/05 11:47:44;;;;;;;;;;;33.10;99.90;;;;;;5117577;27;19947;-68
2022/07/05 11:50:11;;;;;;;;;;;33.10;99.90;;;;;;5111647;27;19924;-69
2022/07/05 11:52:37;;;;;;;;;;;33.20;99.90;;;;;;5119822;28;20039;-69
2022/07/05 11:55:04;;;;;;;;;;;32.80;99.90;;;;;;5121112;28;19911;-69
2022/07/05 11:57:30;;;;;;;;;;;32.60;99.90;;;;;;5113440;28;19911;-70
2022/07/05 11:59:55;;;;;;;;;;;32.60;99.90;;;;;;5119985;28;19910;-70
2022/07/05 12:02:21;;;;;;;;;;;32.70;99.90;;;;;;5121214;27;19908;-72
2022/07/05 12:04:51;;;;;;;;;;;32.90;99.90;;;;;;5120153;27;19951;-69
2022/07/05 12:07:29;;;;;;;;;;;32.80;99.90;;;;;;5122263;27;20014;-68
2022/07/05 12:12:42;;;;;;;;;;;32.90;99.90;;;;;;5119012;28;19915;-70
2022/07/05 12:15:12;;;;;;;;;;;33.20;99.90;;;;;;5120750;28;20345;-69
2022/07/05 12:17:38;;;;;;;;;;;33.70;99.90;;;;;;5123487;28;19911;-69
2022/07/05 12:20:05;;;;;;;;;;;34.00;99.90;;;;;;5135611;28;19954;-69
2022/07/05 12:22:31;;;;;;;;;;;33.80;99.80;;;;;;5112139;28;19999;-68
2022/07/05 12:24:58;;;;;;;;;;;33.80;99.90;;;;;;5101574;28;19914;-69
2022/07/05 12:27:25;;;;;;;;;;;33.50;99.80;;;;;;5112138;28;19892;-70
2022/07/05 12:29:50;;;;;;;;;;;33.40;99.70;;;;;;5115020;28;19975;-72
2022/07/05 12:32:16;;;;;;;;;;;33.30;99.30;;;;;;5117831;28;19914;-70
2022/07/05 12:34:42;;;;;;;;;;;33.70;99.60;;;;;;5121126;28;19967;-68
2022/07/05 12:37:07;;;;;;;;;;;33.90;99.80;;;;;;5116380;28;19907;-67
2022/07/05 12:39:34;;;;;;;;;;;34.30;99.90;;;;;;5111462;28;20334;-68
2022/07/05 12:41:59;;;;;;;;;;;34.30;99.10;;;;;;5115063;28;19904;-68
2022/07/05 12:44:25;;;;;;;;;;;34.30;99.70;;;;;;5113635;28;19928;-68
2022/07/05 12:46:51;;;;;;;;;;;34.30;99.20;;;;;;5116065;28;20291;-69
2022/07/05 12:49:17;;;;;;;;;;;34.40;99.40;;;;;;5117631;28;19912;-67
2022/07/05 12:51:44;;;;;;;;;;;34.40;99.00;;;;;;5117718;28;19907;-66
2022/07/05 12:59:57;;;;;;;;;;;34.80;98.50;;;;;;5117641;28;19911;-68
2022/07/05 13:02:39;;;;;;;;;;;34.80;98.80;;;;;;5118909;28;19903;-69
2022/07/05 13:05:07;;;;;;;;;;;34.50;98.10;;;;;;5117788;28;19908;-68
2022/07/05 13:07:33;;;;;;;;;;;33.90;98.30;;;;;;5116197;28;20364;-69
2022/07/05 13:10:14;;;;;;;;;;;34.00;99.10;;;;;;5114201;28;19904;-70
2022/07/05 13:12:47;;;;;;;;;;;34.00;99.80;;;;;;5110778;27;19911;-73
2022/07/05 13:15:19;;;;;;;;;;;34.10;99.80;;;;;;5116269;28;19912;-72
2022/07/05 13:17:46;;;;;;;;;;;34.00;99.90;;;;;;5120948;28;19954;-73
2022/07/05 13:20:17;;;;;;;;;;;34.10;99.90;;;;;;5119191;28;19908;-72
2022/07/05 13:22:47;;;;;;;;;;;34.40;99.90;;;;;;5120827;28;19918;-71
2022/07/05 13:25:13;;;;;;;;;;;34.80;99.90;;;;;;5122131;28;19949;-71
2022/07/05 13:27:39;;;;;;;;;;;34.80;99.20;;;;;;5112006;28;20451;-70
2022/07/05 13:30:05;;;;;;;;;;;34.80;99.50;;;;;;5110602;27;19950;-72
2022/07/05 13:32:31;;;;;;;;;;;35.10;99.40;;;;;;5109894;28;19947;-71
2022/07/05 13:34:57;;;;;;;;;;;35.20;99.20;;;;;;5114251;28;19922;-72
2022/07/05 13:37:22;;;;;;;;;;;35.00;99.40;;;;;;5113395;28;19915;-71
2022/07/05 13:39:54;;;;;;;;;;;35.00;99.90;;;;;;5113746;27;19904;-72
2022/07/05 13:42:23;;;;;;;;;;;35.00;99.50;;;;;;5112478;28;19915;-69
2022/07/05 13:44:49;;;;;;;;;;;35.30;99.60;;;;;;5108363;28;19907;-71
2022/07/05 13:47:15;;;;;;;;;;;35.40;99.90;;;;;;5111666;28;19945;-71
2022/07/05 13:49:42;;;;;;;;;;;34.70;99.90;;;;;;5109532;28;19919;-68
2022/07/05 13:52:08;;;;;;;;;;;34.50;99.90;;;;;;5109034;28;19904;-72
2022/07/05 13:54:33;;;;;;;;;;;34.50;99.90;;;;;;5112482;28;19942;-72
2022/07/05 13:56:59;;;;;;;;;;;34.60;99.90;;;;;;5111727;28;20367;-71
2022/07/05 13:59:24;;;;;;;;;;;34.60;99.90;;;;;;5112216;28;19911;-70
2022/07/05 14:01:50;;;;;;;;;;;34.60;99.90;;;;;;5113525;28;19984;-71
2022/07/05 14:04:16;;;;;;;;;;;34.20;99.90;;;;;;5116174;28;19911;-71
2022/07/05 14:06:41;;;;;;;;;;;34.00;99.90;;;;;;5113455;28;19907;-69
2022/07/05 14:09:08;;;;;;;;;;;33.60;99.90;;;;;;5112827;28;19910;-72
2022/07/05 14:11:33;;;;;;;;;;;33.20;99.90;;;;;;5113708;28;19904;-70
2022/07/05 14:13:59;;;;;;;;;;;33.20;99.90;;;;;;5112420;28;20274;-71
2022/07/05 14:16:25;;;;;;;;;;;33.20;99.90;;;;;;5111072;28;19914;-71
2022/07/05 14:18:52;;;;;;;;;;;33.00;99.90;;;;;;5112350;28;19908;-72
2022/07/05 14:21:18;;;;;;;;;;;33.10;99.90;;;;;;5112194;28;19915;-73
2022/07/05 14:23:47;;;;;;;;;;;32.90;99.90;;;;;;5112657;28;19911;-73
2022/07/05 14:26:16;;;;;;;;;;;33.00;99.90;;;;;;5113993;28;19910;-71
2022/07/05 14:28:42;;;;;;;;;;;33.10;99.90;;;;;;5112650;28;19903;-73
2022/07/05 14:31:16;;;;;;;;;;;32.90;99.90;;;;;;5107225;28;19908;-72
2022/07/05 14:33:43;;;;;;;;;;;32.90;99.90;;;;;;5109130;28;19907;-71